Time;durP1;ratioP1;P1;durP2;ratioP2;P2;SDS_P1;SDS_P2;PMS_P1;PMS_P2;Temp;Humidity;BMP_temperature;BMP_pressure;BME280_temperature;BME280_humidity;BME280_pressure;Samples;Min_cycle;Max_cycle;Signal;HPM_P1;HPM_P2
2023/09/05 00:00:44;;;;;;;4.32;3.80;;;;;;;16.86;72.43;99622.34;4991109;28;20044;-83
2023/09/05 00:03:09;;;;;;;4.40;3.78;;;;;;;16.94;72.95;99629.13;4987850;28;20497;-83
2023/09/05 00:05:35;;;;;;;5.03;3.70;;;;;;;16.70;72.66;99609.16;4989191;28;20081;-84
2023/09/05 00:08:00;;;;;;;3.83;3.42;;;;;;;16.86;72.75;99629.66;4988245;28;20060;-84
2023/09/05 00:10:26;;;;;;;5.93;3.72;;;;;;;16.84;72.90;99632.59;4990843;28;20421;-84
2023/09/05 00:12:51;;;;;;;7.53;3.78;;;;;;;17.07;72.10;99625.88;4990546;28;20410;-84
2023/09/05 00:15:16;;;;;;;7.78;4.15;;;;;;;17.00;72.29;99619.94;4993358;28;20037;-84
2023/09/05 00:17:43;;;;;;;5.22;3.63;;;;;;;17.05;72.17;99633.41;4977217;28;20125;-84
2023/09/05 00:20:09;;;;;;;5.13;3.30;;;;;;;16.95;72.47;99633.44;4991725;28;20578;-84
2023/09/05 00:22:35;;;;;;;5.78;3.47;;;;;;;16.95;72.11;99628.84;5006607;28;20026;-84
2023/09/05 00:25:01;;;;;;;7.13;3.78;;;;;;;16.88;72.28;99619.41;4990120;28;20075;-84
2023/09/05 00:27:27;;;;;;;6.75;3.97;;;;;;;16.76;72.79;99618.84;4977144;28;20359;-85
2023/09/05 00:29:52;;;;;;;8.07;3.88;;;;;;;16.65;72.96;99601.88;5006271;28;20113;-83
2023/09/05 00:32:20;;;;;;;5.75;3.58;;;;;;;16.49;72.85;99603.72;4975203;28;20517;-83
2023/09/05 00:34:47;;;;;;;14.63;4.00;;;;;;;16.46;73.17;99609.66;4988909;28;20125;-84
2023/09/05 00:37:19;;;;;;;6.88;3.95;;;;;;;16.63;73.02;99612.13;4956417;28;20038;-83
2023/09/05 00:39:45;;;;;;;11.10;4.28;;;;;;;16.72;72.63;99607.81;5005006;28;20017;-84
2023/09/05 00:42:12;;;;;;;8.73;4.35;;;;;;;16.60;73.13;99606.47;5009408;28;20033;-83
2023/09/05 00:44:37;;;;;;;9.10;4.30;;;;;;;16.78;72.53;99600.53;4988022;28;20065;-84
2023/09/05 00:47:04;;;;;;;6.43;4.00;;;;;;;16.73;72.56;99589.75;4989097;28;20077;-84
2023/09/05 00:49:38;;;;;;;4.13;3.72;;;;;;;16.66;72.57;99587.34;4997544;28;20026;-84
2023/09/05 00:52:05;;;;;;;5.43;3.63;;;;;;;16.55;73.50;99603.75;4976354;28;20037;-84
2023/09/05 00:54:30;;;;;;;17.95;4.35;;;;;;;16.49;72.98;99595.63;4988597;28;20081;-84
2023/09/05 00:56:57;;;;;;;5.85;4.07;;;;;;;16.52;73.40;99599.72;4986698;28;20490;-84
2023/09/05 00:59:22;;;;;;;6.60;3.53;;;;;;;16.46;73.27;99574.63;4989196;28;20060;-83
2023/09/05 01:01:48;;;;;;;5.72;3.53;;;;;;;16.48;73.35;99591.34;4988293;28;20034;-83
2023/09/05 01:04:14;;;;;;;5.60;4.35;;;;;;;16.55;73.52;99583.03;4997964;28;20065;-84
2023/09/05 01:06:49;;;;;;;4.43;3.88;;;;;;;16.40;73.38;99586.47;4987787;28;20026;-84
2023/09/05 01:09:40;;;;;;;11.25;3.92;;;;;;;16.31;73.57;99590.78;5004051;23;20042;-77
2023/09/05 01:12:07;;;;;;;9.85;3.78;;;;;;;16.43;73.99;99585.94;4989190;28;20042;-75
2023/09/05 01:14:32;;;;;;;5.70;4.25;;;;;;;16.37;74.08;99578.94;4969654;28;20026;-75
2023/09/05 01:17:05;;;;;;;8.05;3.97;;;;;;;16.51;73.08;99579.25;4969040;28;20113;-76
2023/09/05 01:19:36;;;;;;;4.57;3.63;;;;;;;16.57;73.01;99577.34;4982573;28;20039;-76
2023/09/05 01:22:18;;;;;;;4.88;3.70;;;;;;;16.56;73.10;99575.72;4972683;28;20053;-76
2023/09/05 01:24:47;;;;;;;4.00;3.63;;;;;;;16.46;73.38;99563.84;4965970;28;20045;-76
2023/09/05 01:27:17;;;;;;;6.43;3.80;;;;;;;16.42;73.66;99564.66;4970756;28;20030;-76
2023/09/05 01:29:44;;;;;;;7.15;4.30;;;;;;;16.35;73.84;99556.84;4965765;28;20114;-76
2023/09/05 01:32:09;;;;;;;13.57;4.13;;;;;;;16.40;74.00;99554.13;4967425;28;20023;-76
2023/09/05 01:34:35;;;;;;;7.70;3.53;;;;;;;16.33;73.99;99548.22;4964260;28;20030;-76
2023/09/05 01:37:00;;;;;;;4.15;3.72;;;;;;;16.46;73.80;99545.00;4966527;28;20035;-76
2023/09/05 01:39:26;;;;;;;6.85;4.30;;;;;;;16.23;74.73;99533.91;4960610;28;20540;-76
2023/09/05 01:41:52;;;;;;;5.65;3.58;;;;;;;16.21;74.29;99542.25;4965283;28;20479;-76
2023/09/05 01:44:17;;;;;;;7.50;3.90;;;;;;;16.18;74.49;99532.03;4967716;28;20050;-76
2023/09/05 01:46:43;;;;;;;5.63;3.70;;;;;;;16.32;74.46;99535.81;4968524;28;20026;-76
2023/09/05 01:49:08;;;;;;;12.13;4.10;;;;;;;16.31;74.56;99534.22;4967486;28;20900;-76
2023/09/05 01:51:34;;;;;;;5.80;4.03;;;;;;;16.15;74.74;99532.56;4967197;28;20034;-77
2023/09/05 01:53:59;;;;;;;4.75;3.65;;;;;;;16.06;75.26;99530.66;4966893;28;20026;-76
2023/09/05 01:56:24;;;;;;;8.65;3.80;;;;;;;16.23;74.17;99528.50;4965745;28;20042;-77
2023/09/05 01:58:50;;;;;;;11.38;4.43;;;;;;;16.25;74.40;99531.78;4970205;28;20121;-77
2023/09/05 02:01:15;;;;;;;6.63;4.35;;;;;;;16.01;75.23;99530.66;4969037;28;20039;-77
2023/09/05 02:03:41;;;;;;;5.68;4.30;;;;;;;16.04;75.36;99527.44;4965951;28;21061;-77
2023/09/05 02:06:06;;;;;;;4.70;3.30;;;;;;;16.11;75.46;99542.25;4968719;28;20038;-77
2023/09/05 02:08:34;;;;;;;4.07;3.67;;;;;;;16.10;74.50;99537.13;4970174;28;20510;-76
2023/09/05 02:11:00;;;;;;;5.35;4.07;;;;;;;15.96;75.28;99544.94;4963977;28;20034;-77
2023/09/05 02:13:25;;;;;;;4.50;4.10;;;;;;;15.91;75.29;99539.53;4965530;28;20027;-76
2023/09/05 02:15:51;;;;;;;4.20;3.80;;;;;;;16.05;74.96;99543.34;4965425;28;20031;-77
2023/09/05 02:18:16;;;;;;;7.15;3.33;;;;;;;16.13;75.12;99545.50;4963093;28;20103;-76
2023/09/05 02:20:42;;;;;;;5.28;3.85;;;;;;;16.11;74.38;99544.97;4969424;28;20372;-77
2023/09/05 02:23:07;;;;;;;5.63;3.60;;;;;;;16.22;74.11;99540.38;4972097;28;20077;-76
2023/09/05 02:25:33;;;;;;;10.98;4.13;;;;;;;16.17;74.06;99537.69;4970295;28;20059;-77
2023/09/05 02:27:59;;;;;;;7.22;3.72;;;;;;;16.23;73.49;99541.97;4967255;28;20117;-77
2023/09/05 02:30:25;;;;;;;4.60;3.72;;;;;;;16.25;73.73;99532.56;4965629;28;20030;-77
2023/09/05 02:32:54;;;;;;;6.53;3.95;;;;;;;16.14;74.38;99540.94;4967764;28;20043;-76
2023/09/05 02:35:22;;;;;;;5.68;3.90;;;;;;;16.07;73.94;99543.06;4965375;28;20586;-77
2023/09/05 02:37:55;;;;;;;13.65;3.92;;;;;;;16.19;73.76;99528.25;4967358;28;20035;-76
2023/09/05 02:40:21;;;;;;;7.53;3.60;;;;;;;15.99;74.31;99541.69;4966581;28;20080;-76
2023/09/05 02:42:46;;;;;;;16.60;3.95;;;;;;;16.01;73.95;99536.06;4965873;28;20121;-77
2023/09/05 02:45:13;;;;;;;6.93;3.42;;;;;;;16.04;74.03;99547.09;4966371;28;20035;-77
2023/09/05 02:47:39;;;;;;;13.07;3.70;;;;;;;16.11;73.66;99555.72;4965931;28;20031;-76
2023/09/05 02:50:06;;;;;;;3.90;2.88;;;;;;;16.16;73.33;99541.47;4964014;28;20046;-77
2023/09/05 02:52:32;;;;;;;3.17;2.92;;;;;;;16.08;73.86;99536.59;4981243;28;20034;-76
2023/09/05 02:54:58;;;;;;;5.18;3.40;;;;;;;15.93;74.21;99534.69;4967861;28;20471;-77
2023/09/05 02:57:23;;;;;;;7.57;3.40;;;;;;;15.88;74.26;99537.34;4966415;28;20043;-77
2023/09/05 02:59:53;;;;;;;5.30;3.50;;;;;;;15.77;74.70;99535.72;4950762;28;20035;-77
2023/09/05 03:02:18;;;;;;;4.90;3.65;;;;;;;15.84;74.42;99541.66;4971179;28;20495;-76
2023/09/05 03:04:44;;;;;;;5.50;3.70;;;;;;;15.65;74.93;99533.28;4971499;28;20089;-77
2023/09/05 03:07:09;;;;;;;6.38;3.80;;;;;;;15.61;75.45;99542.13;4966878;28;20039;-77
2023/09/05 03:09:35;;;;;;;5.55;3.35;;;;;;;15.64;74.63;99544.28;4969659;28;20129;-77
2023/09/05 03:12:00;;;;;;;9.43;4.20;;;;;;;15.78;74.87;99531.97;4970872;28;20126;-77
2023/09/05 03:14:26;;;;;;;6.18;3.65;;;;;;;15.62;74.76;99543.72;4972632;28;20033;-76
2023/09/05 03:16:51;;;;;;;6.88;3.42;;;;;;;15.56;74.98;99542.94;4970602;28;20045;-77
2023/09/05 03:19:19;;;;;;;5.07;3.75;;;;;;;15.56;74.93;99536.72;4971110;28;20031;-77
2023/09/05 03:21:45;;;;;;;4.90;3.10;;;;;;;15.68;74.81;99531.94;4968880;28;20066;-77
2023/09/05 03:24:10;;;;;;;3.35;3.05;;;;;;;15.83;74.09;99526.59;4971784;28;20063;-75
2023/09/05 03:26:36;;;;;;;4.13;3.72;;;;;;;15.84;74.17;99528.19;4972164;28;20514;-77
2023/09/05 03:29:02;;;;;;;5.25;3.50;;;;;;;15.91;73.96;99517.97;4962960;28;20041;-76
2023/09/05 03:31:28;;;;;;;7.07;3.58;;;;;;;15.89;74.19;99520.13;4960804;28;20396;-76
2023/09/05 03:33:54;;;;;;;7.43;4.20;;;;;;;15.71;74.62;99517.94;4968516;28;20506;-76
2023/09/05 03:36:21;;;;;;;8.75;3.67;;;;;;;15.42;74.85;99517.53;4968884;28;20086;-76
2023/09/05 03:38:46;;;;;;;5.00;3.40;;;;;;;15.72;74.51;99523.06;4962823;28;20123;-75
2023/09/05 03:41:12;;;;;;;4.20;3.17;;;;;;;15.67;74.87;99533.00;4963501;28;20125;-75
2023/09/05 03:43:37;;;;;;;6.78;3.58;;;;;;;15.55;74.78;99527.06;4967722;28;20553;-75
2023/09/05 03:46:02;;;;;;;8.15;3.33;;;;;;;15.29;75.96;99542.22;4965355;28;20089;-75
2023/09/05 03:48:28;;;;;;;8.55;3.38;;;;;;;15.30;75.81;99532.28;4967812;28;20038;-75
2023/09/05 03:50:53;;;;;;;5.88;3.67;;;;;;;15.22;75.60;99536.28;4964967;28;20077;-75
2023/09/05 03:53:20;;;;;;;4.78;4.00;;;;;;;15.35;75.70;99543.06;4969950;28;20575;-75
2023/09/05 03:55:45;;;;;;;4.13;3.20;;;;;;;15.56;75.05;99532.16;4969807;28;20030;-75
2023/09/05 03:58:11;;;;;;;7.45;3.83;;;;;;;15.47;75.39;99541.00;4969190;28;20046;-76
2023/09/05 04:00:36;;;;;;;7.90;3.78;;;;;;;15.56;74.50;99534.84;4965373;28;20031;-76
2023/09/05 04:03:04;;;;;;;4.53;3.75;;;;;;;15.59;74.80;99538.91;4969479;28;20034;-76
2023/09/05 04:05:32;;;;;;;4.38;3.53;;;;;;;15.56;74.41;99539.41;4968749;28;20460;-75
2023/09/05 04:07:57;;;;;;;7.57;3.75;;;;;;;15.57;74.24;99543.75;4966244;28;20035;-76
2023/09/05 04:10:23;;;;;;;5.40;4.15;;;;;;;15.62;74.45;99546.44;4965292;28;20085;-75
2023/09/05 04:12:51;;;;;;;6.53;3.53;;;;;;;15.48;75.10;99553.38;4961751;28;20026;-75
2023/09/05 04:15:21;;;;;;;6.88;3.67;;;;;;;15.00;76.57;99546.38;4965721;28;20542;-75
2023/09/05 04:17:47;;;;;;;4.05;3.60;;;;;;;14.96;76.33;99556.84;4967471;28;20484;-75
2023/09/05 04:20:13;;;;;;;4.95;3.40;;;;;;;15.44;75.10;99536.16;4967487;28;20045;-75
2023/09/05 04:22:39;;;;;;;5.20;3.75;;;;;;;15.28;75.95;99546.00;4965019;28;20038;-75
2023/09/05 04:25:06;;;;;;;5.75;3.50;;;;;;;15.41;75.32;99544.72;4965019;28;20038;-75
2023/09/05 04:27:32;;;;;;;5.30;3.58;;;;;;;15.33;75.34;99550.59;4969415;28;20117;-75
2023/09/05 04:29:57;;;;;;;4.18;3.45;;;;;;;15.54;74.55;99546.94;4965293;28;20126;-75
2023/09/05 04:32:31;;;;;;;5.20;4.20;;;;;;;15.32;74.79;99551.66;4968078;28;20031;-75
2023/09/05 04:35:01;;;;;;;4.90;4.35;;;;;;;15.35;74.82;99551.16;4966017;28;20145;-75
2023/09/05 04:37:28;;;;;;;6.75;3.55;;;;;;;15.41;75.10;99552.78;4962257;28;20035;-75
2023/09/05 04:39:54;;;;;;;7.07;4.53;;;;;;;15.25;75.01;99548.38;4961975;28;20045;-75
2023/09/05 04:42:20;;;;;;;5.55;3.38;;;;;;;15.43;75.04;99553.31;4975828;28;20105;-75
2023/09/05 04:44:46;;;;;;;6.05;3.65;;;;;;;15.46;74.47;99558.22;4964725;28;20039;-76
2023/09/05 04:47:26;;;;;;;8.70;3.58;;;;;;;15.45;74.88;99548.50;4979705;28;20436;-75
2023/09/05 04:49:57;;;;;;;8.68;3.22;;;;;;;15.36;74.79;99550.88;4965442;28;20031;-76
2023/09/05 04:52:26;;;;;;;3.50;3.20;;;;;;;15.35;75.07;99557.34;4968718;28;20026;-75
2023/09/05 04:54:52;;;;;;;7.97;4.03;;;;;;;15.41;75.16;99553.59;4969741;28;20054;-75
2023/09/05 04:57:17;;;;;;;5.88;3.40;;;;;;;15.23;75.79;99555.91;4967416;28;20069;-74
2023/09/05 04:59:44;;;;;;;3.45;3.15;;;;;;;15.11;75.18;99558.81;4970206;28;20030;-75
2023/09/05 05:02:10;;;;;;;7.57;3.45;;;;;;;15.09;76.13;99569.03;4968117;28;20034;-75
2023/09/05 05:04:36;;;;;;;5.88;3.35;;;;;;;15.14;76.01;99571.72;4968655;28;20027;-75
2023/09/05 05:07:01;;;;;;;7.28;3.55;;;;;;;15.08;76.42;99577.34;4972917;28;20039;-75
2023/09/05 05:09:27;;;;;;;15.02;4.40;;;;;;;15.01;76.72;99574.88;4966046;28;20122;-76
2023/09/05 05:11:52;;;;;;;4.10;3.33;;;;;;;14.96;76.73;99572.97;4951643;28;20049;-75
2023/09/05 05:14:18;;;;;;;6.32;3.83;;;;;;;15.08;76.35;99562.03;4968440;28;20054;-75
2023/09/05 05:16:43;;;;;;;7.07;3.78;;;;;;;15.07;76.47;99579.22;4972156;28;20038;-75
2023/09/05 05:19:10;;;;;;;4.07;3.20;;;;;;;14.95;76.69;99575.91;4968009;28;20038;-76
2023/09/05 05:21:35;;;;;;;4.78;3.30;;;;;;;15.18;76.84;99572.03;4964305;28;20034;-76
2023/09/05 05:24:00;;;;;;;4.28;3.38;;;;;;;15.13;76.98;99582.75;4961501;28;20037;-75
2023/09/05 05:26:28;;;;;;;3.60;3.28;;;;;;;15.18;76.73;99580.88;4964499;28;20043;-75
2023/09/05 05:28:53;;;;;;;4.72;3.70;;;;;;;15.20;76.60;99588.72;4961647;28;20129;-75
2023/09/05 05:31:19;;;;;;;5.82;3.63;;;;;;;15.09;77.31;99582.47;4963884;28;20034;-75
2023/09/05 05:33:44;;;;;;;5.53;3.45;;;;;;;15.25;77.25;99578.78;4962488;28;20035;-76
2023/09/05 05:36:10;;;;;;;3.80;3.13;;;;;;;15.04;77.82;99577.06;4968360;28;20031;-75
2023/09/05 05:38:35;;;;;;;3.70;3.30;;;;;;;15.18;77.53;99574.72;4958746;28;20500;-75
2023/09/05 05:41:02;;;;;;;3.40;2.90;;;;;;;15.20;77.41;99573.38;4960983;28;20069;-75
2023/09/05 05:43:29;;;;;;;4.65;3.40;;;;;;;15.23;77.79;99574.72;4967783;28;20057;-75
2023/09/05 05:45:54;;;;;;;4.50;3.55;;;;;;;15.31;77.58;99576.94;4958925;28;20702;-75
2023/09/05 05:48:20;;;;;;;6.07;3.60;;;;;;;15.25;78.09;99580.66;4960666;28;20023;-76
2023/09/05 05:50:45;;;;;;;5.78;3.40;;;;;;;15.27;78.32;99586.59;4961268;28;20030;-76
2023/09/05 05:53:11;;;;;;;6.30;4.28;;;;;;;15.25;78.03;99575.28;4956282;28;20022;-76
2023/09/05 05:55:36;;;;;;;9.30;3.63;;;;;;;15.08;78.98;99591.59;4961674;28;20030;-76
2023/09/05 05:58:01;;;;;;;4.30;3.70;;;;;;;15.41;77.57;99590.44;4961774;28;20435;-76
2023/09/05 06:00:29;;;;;;;5.80;3.50;;;;;;;15.39;77.90;99593.41;4963544;28;20062;-76
2023/09/05 06:02:55;;;;;;;3.85;3.40;;;;;;;15.51;77.25;99582.44;4963036;28;20045;-76
2023/09/05 06:05:21;;;;;;;4.90;3.80;;;;;;;15.47;77.91;99592.09;4963904;28;20053;-76
2023/09/05 06:07:47;;;;;;;3.97;3.40;;;;;;;15.57;77.88;99589.47;4959739;28;20031;-76
2023/09/05 06:10:13;;;;;;;4.82;3.72;;;;;;;15.47;78.00;99589.41;4958921;28;20038;-76
2023/09/05 06:12:38;;;;;;;6.05;3.92;;;;;;;15.58;77.83;99591.09;4958146;28;20037;-76
2023/09/05 06:15:04;;;;;;;4.22;3.60;;;;;;;15.65;77.26;99591.66;4969003;28;20038;-76
2023/09/05 06:17:29;;;;;;;4.70;3.70;;;;;;;15.57;78.31;99594.88;4966129;28;20039;-76
2023/09/05 06:19:55;;;;;;;3.97;3.22;;;;;;;15.66;77.12;99596.78;4966442;28;20510;-76
2023/09/05 06:22:20;;;;;;;4.97;3.45;;;;;;;15.70;76.97;99591.69;4966986;28;20585;-76
2023/09/05 06:24:45;;;;;;;4.03;3.20;;;;;;;15.59;78.04;99588.16;4982205;28;20480;-78
2023/09/05 06:27:11;;;;;;;5.55;3.92;;;;;;;15.70;77.60;99597.06;4953488;28;20991;-77
2023/09/05 06:29:37;;;;;;;3.63;3.33;;;;;;;15.76;77.07;99598.72;4964396;28;20046;-77
2023/09/05 06:32:03;;;;;;;7.50;3.60;;;;;;;15.72;77.67;99603.81;4962222;28;20047;-76
2023/09/05 06:34:28;;;;;;;7.95;4.70;;;;;;;15.56;81.01;99595.94;4964051;28;20030;-76
2023/09/05 06:36:53;;;;;;;6.30;4.57;;;;;;;15.50;79.78;99594.28;4981822;28;20093;-77
2023/09/05 06:39:19;;;;;;;5.38;3.85;;;;;;;15.61;78.22;99586.00;4967514;28;20038;-77
2023/09/05 06:41:44;;;;;;;3.75;3.45;;;;;;;15.86;77.58;99587.19;4967567;28;20042;-76
2023/09/05 06:44:09;;;;;;;4.00;3.38;;;;;;;15.97;76.97;99583.41;4971510;28;20398;-77
2023/09/05 06:46:35;;;;;;;5.47;4.18;;;;;;;16.05;77.16;99589.13;4969403;28;20087;-76
2023/09/05 06:49:02;;;;;;;6.80;4.07;;;;;;;15.75;79.81;99591.69;4970152;28;20038;-74
2023/09/05 06:51:28;;;;;;;4.40;3.60;;;;;;;15.82;78.18;99592.25;4963195;28;20030;-76
2023/09/05 06:53:54;;;;;;;8.45;5.00;;;;;;;15.57;81.93;99592.19;4953774;28;20041;-78
2023/09/05 06:56:20;;;;;;;4.93;4.25;;;;;;;15.59;82.05;99593.53;4964567;28;20042;-77
2023/09/05 06:58:46;;;;;;;6.35;4.97;;;;;;;15.66;82.05;99590.59;4972334;28;20103;-77
2023/09/05 07:01:13;;;;;;;5.18;3.88;;;;;;;15.86;79.58;99584.50;4973439;28;20038;-77
2023/09/05 07:03:38;;;;;;;4.30;3.78;;;;;;;16.08;78.23;99582.38;4968463;28;20034;-78
2023/09/05 07:06:04;;;;;;;4.95;4.40;;;;;;;16.15;78.51;99588.31;4969683;28;20808;-78
2023/09/05 07:08:31;;;;;;;6.97;4.40;;;;;;;16.06;78.82;99577.25;4972573;28;20495;-74
2023/09/05 07:10:56;;;;;;;5.43;4.22;;;;;;;16.10;79.67;99582.91;4969602;28;20081;-76
2023/09/05 07:13:22;;;;;;;6.63;5.18;;;;;;;15.96;82.09;99587.19;4968483;28;20483;-75
2023/09/05 07:15:47;;;;;;;4.72;3.55;;;;;;;16.03;80.22;99585.06;4969143;28;20042;-75
2023/09/05 07:18:12;;;;;;;6.70;3.85;;;;;;;16.22;78.69;99597.78;4970936;28;20531;-75
2023/09/05 07:20:38;;;;;;;6.70;4.00;;;;;;;16.15;80.15;99591.81;4970754;28;20064;-75
2023/09/05 07:23:04;;;;;;;6.78;4.60;;;;;;;16.21;79.92;99590.75;4967575;28;20162;-76
2023/09/05 07:25:29;;;;;;;3.50;3.20;;;;;;;16.35;78.98;99591.88;4966183;28;20038;-76
2023/09/05 07:27:54;;;;;;;4.90;3.90;;;;;;;16.40;79.60;99582.97;4962049;28;20030;-75
2023/09/05 07:30:20;;;;;;;4.18;3.53;;;;;;;16.53;78.31;99576.28;4961899;28;20125;-75
2023/09/05 07:32:45;;;;;;;5.25;3.53;;;;;;;16.46;79.02;99571.94;4956411;28;20455;-76
2023/09/05 07:35:11;;;;;;;6.82;4.28;;;;;;;16.64;79.69;99586.81;4959751;28;20061;-76
2023/09/05 07:37:38;;;;;;;4.15;3.75;;;;;;;16.52;81.54;99578.16;4970072;28;20042;-75
2023/09/05 07:40:05;;;;;;;3.65;3.28;;;;;;;16.54;80.42;99580.56;4968972;28;20045;-75
2023/09/05 07:42:31;;;;;;;5.28;3.20;;;;;;;16.78;78.10;99579.78;4965618;28;20049;-75
2023/09/05 07:44:56;;;;;;;4.45;3.50;;;;;;;16.77;78.73;99582.75;4964032;28;20469;-75
2023/09/05 07:47:21;;;;;;;7.70;3.35;;;;;;;16.85;78.06;99583.00;4971720;28;20037;-78
2023/09/05 07:49:47;;;;;;;6.82;3.33;;;;;;;17.05;76.99;99584.88;4968789;28;20027;-76
2023/09/05 07:52:12;;;;;;;5.80;3.97;;;;;;;17.07;78.10;99585.41;4971803;28;20042;-75
2023/09/05 07:54:38;;;;;;;5.18;3.63;;;;;;;17.08;76.79;99566.25;4964928;28;20030;-76
2023/09/05 07:57:03;;;;;;;4.00;3.05;;;;;;;17.35;76.33;99576.69;4969100;28;20034;-76
2023/09/05 07:59:31;;;;;;;3.97;3.08;;;;;;;17.28;77.22;99573.47;4968598;28;20046;-75
2023/09/05 08:01:56;;;;;;;3.75;3.22;;;;;;;17.47;76.09;99587.19;4967036;28;20035;-76
2023/09/05 08:04:22;;;;;;;3.95;3.60;;;;;;;17.53;75.96;99580.72;4965337;28;20399;-76
2023/09/05 08:06:48;;;;;;;4.45;3.42;;;;;;;17.56;75.77;99591.78;4966162;28;20157;-76
2023/09/05 08:09:13;;;;;;;4.97;3.25;;;;;;;17.60;75.58;99583.94;4968320;28;20046;-75
2023/09/05 08:11:39;;;;;;;4.70;3.17;;;;;;;17.60;75.26;99586.66;4968234;28;20058;-76
2023/09/05 08:14:05;;;;;;;5.47;3.28;;;;;;;17.65;74.42;99586.59;4981881;28;20180;-76
2023/09/05 08:16:30;;;;;;;5.80;3.45;;;;;;;17.78;75.28;99584.13;4966432;28;20138;-76
2023/09/05 08:18:55;;;;;;;3.22;2.72;;;;;;;17.87;75.09;99589.75;4968076;28;20030;-76
2023/09/05 08:21:21;;;;;;;5.30;3.53;;;;;;;18.00;74.02;99581.03;4971041;28;20072;-75
2023/09/05 08:23:49;;;;;;;6.35;3.42;;;;;;;18.07;73.71;99573.44;4969440;28;20027;-76
2023/09/05 08:26:16;;;;;;;4.57;2.70;;;;;;;18.22;72.90;99583.34;4962010;28;20104;-75
2023/09/05 08:28:43;;;;;;;3.45;3.15;;;;;;;18.24;73.43;99573.09;4977756;28;20030;-77
2023/09/05 08:31:10;;;;;;;3.50;2.65;;;;;;;18.22;72.84;99577.94;4966048;28;20419;-76
2023/09/05 08:33:35;;;;;;;4.68;2.83;;;;;;;18.38;72.45;99582.16;4964170;28;20399;-76
2023/09/05 08:36:03;;;;;;;4.90;2.90;;;;;;;18.40;71.66;99571.88;4967134;28;20035;-76
2023/09/05 08:38:28;;;;;;;4.25;3.13;;;;;;;18.41;71.12;99568.09;4968631;28;20038;-76
2023/09/05 08:40:59;;;;;;;11.32;3.38;;;;;;;18.50;72.22;99569.13;4968435;28;20034;-76
2023/09/05 08:43:27;;;;;;;3.03;2.72;;;;;;;18.59;71.41;99564.72;4970585;28;20022;-76
2023/09/05 08:45:53;;;;;;;3.25;2.95;;;;;;;18.68;70.85;99568.44;4950771;28;20069;-76
2023/09/05 08:48:18;;;;;;;4.18;2.63;;;;;;;18.78;69.11;99568.34;4969148;28;20026;-76
2023/09/05 08:50:44;;;;;;;4.88;2.88;;;;;;;18.77;70.66;99569.44;4970805;28;20034;-75
2023/09/05 08:53:10;;;;;;;4.78;2.95;;;;;;;18.88;69.16;99565.56;4970844;28;20556;-77
2023/09/05 08:55:38;;;;;;;5.47;2.58;;;;;;;18.89;69.79;99572.59;4972681;28;20031;-76
2023/09/05 08:58:06;;;;;;;2.88;2.53;;;;;;;18.95;69.23;99560.63;4969418;28;20039;-75
2023/09/05 09:00:32;;;;;;;5.40;3.15;;;;;;;19.03;70.43;99567.28;4967250;28;20023;-76
2023/09/05 09:02:59;;;;;;;3.88;2.70;;;;;;;19.15;69.36;99556.91;4968020;28;20027;-76
2023/09/05 09:05:24;;;;;;;5.50;2.78;;;;;;;19.12;69.57;99558.28;4972346;28;20085;-75
2023/09/05 09:07:54;;;;;;;4.53;2.67;;;;;;;19.35;69.28;99559.44;4969824;28;20038;-76
2023/09/05 09:10:20;;;;;;;4.43;2.70;;;;;;;19.35;69.27;99568.31;4968699;28;20066;-74
2023/09/05 09:12:51;;;;;;;4.65;2.60;;;;;;;19.42;68.42;99563.38;4972528;28;20042;-76
2023/09/05 09:15:16;;;;;;;3.92;2.50;;;;;;;19.50;68.83;99569.25;4963472;28;20051;-76
2023/09/05 09:17:45;;;;;;;4.80;2.80;;;;;;;19.59;66.82;99559.41;4970554;28;20030;-77
2023/09/05 09:20:14;;;;;;;5.05;2.72;;;;;;;19.66;68.13;99563.34;4969064;28;20034;-77
2023/09/05 09:22:41;;;;;;;9.13;3.90;;;;;;;19.71;66.54;99565.19;4967744;28;20030;-76
2023/09/05 09:25:15;;;;;;;3.17;2.60;;;;;;;19.72;68.42;99566.81;4968693;28;20442;-76
2023/09/05 09:27:44;;;;;;;6.60;3.13;;;;;;;19.63;67.94;99560.44;4965093;28;20026;-76
2023/09/05 09:30:11;;;;;;;4.57;2.42;;;;;;;19.85;68.12;99558.78;4969442;28;20703;-76
2023/09/05 09:32:37;;;;;;;3.22;2.85;;;;;;;19.92;68.58;99559.22;4968097;28;20027;-77
2023/09/05 09:35:06;;;;;;;2.97;2.67;;;;;;;19.96;68.81;99562.16;4964469;28;20035;-76
2023/09/05 09:37:32;;;;;;;4.78;2.72;;;;;;;20.04;66.35;99556.09;4962586;28;20037;-76
2023/09/05 09:40:06;;;;;;;3.38;2.30;;;;;;;20.14;67.70;99551.31;4959185;28;20032;-76
2023/09/05 09:42:33;;;;;;;6.18;2.72;;;;;;;20.19;68.70;99564.00;4955240;28;20401;-76
2023/09/05 09:45:00;;;;;;;2.67;2.40;;;;;;;20.25;68.66;99564.78;4963176;28;20039;-76
2023/09/05 09:47:30;;;;;;;3.35;2.78;;;;;;;20.35;68.42;99548.34;4968586;28;20042;-75
2023/09/05 09:49:58;;;;;;;4.18;3.10;;;;;;;20.38;66.04;99555.91;4967645;28;20510;-75
2023/09/05 09:52:29;;;;;;;2.92;2.58;;;;;;;20.39;65.54;99552.88;4981264;28;20061;-76
2023/09/05 09:54:56;;;;;;;5.20;2.72;;;;;;;20.54;67.22;99541.78;4964938;28;20026;-76
2023/09/05 09:57:28;;;;;;;3.45;2.10;;;;;;;20.72;67.04;99535.50;4966181;28;20035;-76
2023/09/05 10:00:00;;;;;;;3.70;2.95;;;;;;;20.65;67.46;99537.81;4966611;28;20031;-76
2023/09/05 10:02:28;;;;;;;3.47;2.55;;;;;;;20.86;66.94;99536.34;4964637;28;20026;-76
2023/09/05 10:04:55;;;;;;;3.25;2.42;;;;;;;20.89;66.67;99537.66;4967997;28;20045;-76
2023/09/05 10:07:21;;;;;;;3.22;2.40;;;;;;;20.92;64.87;99537.06;4970791;28;20380;-76
2023/09/05 10:09:49;;;;;;;4.07;2.50;;;;;;;21.11;66.28;99537.81;4964739;28;20077;-76
2023/09/05 10:12:20;;;;;;;2.78;2.15;;;;;;;21.17;65.50;99530.38;4971242;28;20073;-76
2023/09/05 10:14:47;;;;;;;3.65;2.90;;;;;;;21.17;65.66;99528.47;4971273;28;20057;-76
2023/09/05 10:17:15;;;;;;;3.15;2.88;;;;;;;21.37;65.46;99528.06;4970979;28;20041;-76
2023/09/05 10:19:42;;;;;;;2.38;2.10;;;;;;;21.40;64.92;99513.91;4969032;28;20205;-76
2023/09/05 10:22:09;;;;;;;5.35;2.30;;;;;;;21.52;64.75;99516.06;4969727;28;20039;-76
2023/09/05 10:24:37;;;;;;;5.05;2.83;;;;;;;21.63;64.72;99512.03;4971838;28;20121;-76
2023/09/05 10:27:03;;;;;;;2.95;2.60;;;;;;;21.73;64.17;99506.41;4971031;28;20117;-76
2023/09/05 10:29:42;;;;;;;2.72;2.25;;;;;;;21.89;64.58;99502.25;4971647;28;20038;-76
2023/09/05 10:32:08;;;;;;;3.58;2.47;;;;;;;21.91;62.56;99501.97;4970508;28;20027;-76
2023/09/05 10:34:55;;;;;;;4.18;2.55;;;;;;;22.10;63.81;99510.75;4968573;28;20035;-78
2023/09/05 10:37:26;;;;;;;3.10;2.75;;;;;;;22.25;63.52;99507.69;4970906;28;20034;-78
2023/09/05 10:39:54;;;;;;;4.35;2.17;;;;;;;22.06;60.77;99510.56;4971839;28;20041;-78
2023/09/05 10:42:27;;;;;;;5.18;2.50;;;;;;;22.40;62.99;99507.31;4970162;28;20038;-79
2023/09/05 10:44:53;;;;;;;5.10;2.17;;;;;;;22.60;62.74;99512.28;4972024;28;20038;-79
2023/09/05 10:47:28;;;;;;;5.50;2.83;;;;;;;22.67;61.82;99514.56;4974653;28;20049;-78
2023/09/05 10:49:58;;;;;;;2.80;2.05;;;;;;;22.72;62.35;99501.59;4970448;28;20027;-77
2023/09/05 10:52:27;;;;;;;2.15;1.92;;;;;;;22.93;62.10;99499.16;4970655;28;20532;-79
2023/09/05 10:54:53;;;;;;;3.35;2.33;;;;;;;22.99;61.09;99493.28;4971406;28;20034;-79
2023/09/05 10:57:41;;;;;;;4.18;2.65;;;;;;;23.23;61.30;99492.88;4971553;28;20039;-79
2023/09/05 11:00:15;;;;;;;2.67;2.20;;;;;;;23.19;58.35;99486.47;4968191;28;20027;-79
2023/09/05 11:02:42;;;;;;;2.45;2.22;;;;;;;23.38;59.69;99484.28;4966463;28;20042;-79
2023/09/05 11:05:12;;;;;;;2.20;2.00;;;;;;;23.44;59.43;99491.19;4987795;28;20365;-80
2023/09/05 11:07:42;;;;;;;3.38;2.28;;;;;;;23.58;59.17;99477.44;4985150;28;20448;-79
2023/09/05 11:10:24;;;;;;;5.03;2.28;;;;;;;23.71;59.23;99477.31;4985021;28;20030;-76
2023/09/05 11:12:50;;;;;;;2.05;1.80;;;;;;;23.81;57.80;99482.44;4969468;28;20037;-76
2023/09/05 11:15:31;;;;;;;3.05;1.90;;;;;;;23.96;58.65;99480.38;4972044;28;20039;-76
2023/09/05 11:18:06;;;;;;;2.55;2.03;;;;;;;24.08;59.30;99483.28;4973245;28;20479;-77
2023/09/05 11:20:39;;;;;;;2.90;2.10;;;;;;;24.20;58.53;99473.31;4972584;28;20030;-76
2023/09/05 11:23:25;;;;;;;5.22;2.45;;;;;;;24.35;57.67;99478.25;4971811;28;20062;-76
2023/09/05 11:25:55;;;;;;;3.88;1.98;;;;;;;24.43;58.12;99474.75;4973637;28;20412;-77
2023/09/05 11:28:25;;;;;;;1.85;1.60;;;;;;;24.51;58.14;99470.38;4968638;28;20031;-77
2023/09/05 11:30:55;;;;;;;2.50;2.28;;;;;;;24.74;57.40;99474.50;4969294;28;20549;-76
2023/09/05 11:33:20;;;;;;;3.08;1.80;;;;;;;24.89;57.25;99473.19;4965955;28;20034;-76